createdAt,value
2023-04-03T00:00:18.848Z,-69
2023-04-03T00:05:20.710Z,-66
2023-04-03T00:10:22.510Z,-69
2023-04-03T00:15:24.079Z,-69
2023-04-03T00:20:25.724Z,-68
2023-04-03T00:25:28.376Z,-66
2023-04-03T00:30:30.136Z,-63
2023-04-03T00:35:31.867Z,-64
2023-04-03T00:40:40.051Z,-71
2023-04-03T00:45:44.329Z,-67
2023-04-03T00:50:48.439Z,-67
2023-04-03T00:55:52.014Z,-65
2023-04-03T01:00:58.976Z,-64
2023-04-03T01:06:00.957Z,-65
2023-04-03T01:11:02.524Z,-68
2023-04-03T01:16:07.835Z,-67
2023-04-03T01:21:47.928Z,-65
2023-04-03T01:26:51.385Z,-64
2023-04-03T01:31:58.999Z,-64
2023-04-03T01:37:00.572Z,-64
2023-04-03T01:42:02.158Z,-65
2023-04-03T01:47:07.109Z,-64
2023-04-03T01:52:08.601Z,-68
2023-04-03T01:57:10.233Z,-68
2023-04-03T02:02:13.454Z,-69
2023-04-03T02:07:14.978Z,-68
2023-04-03T02:12:16.861Z,-69
2023-04-03T02:17:18.655Z,-69
2023-04-03T02:22:21.211Z,-64
2023-04-03T02:27:22.841Z,-63
2023-04-03T02:32:24.860Z,-65
2023-04-03T02:37:26.701Z,-70
2023-04-03T02:42:29.076Z,-68
2023-04-03T02:47:30.852Z,-69
2023-04-03T02:52:33.007Z,-70
2023-04-03T02:57:34.566Z,-70
2023-04-03T03:02:36.480Z,-69
2023-04-03T03:07:38.117Z,-70
2023-04-03T03:12:39.595Z,-68
2023-04-03T03:17:41.186Z,-70
2023-04-03T03:22:42.877Z,-69
2023-04-03T03:27:44.549Z,-63
2023-04-03T03:32:46.456Z,-67
2023-04-03T03:37:48.057Z,-68
2023-04-03T03:42:49.846Z,-64
2023-04-03T03:47:51.384Z,-68
2023-04-03T03:52:53.079Z,-70
2023-04-03T03:57:54.709Z,-70
2023-04-03T04:02:58.728Z,-68
2023-04-03T04:08:00.988Z,-68
2023-04-03T04:13:02.556Z,-63
2023-04-03T04:18:04.654Z,-64
2023-04-03T04:23:06.304Z,-63
2023-04-03T04:28:07.856Z,-67
2023-04-03T04:33:09.579Z,-72
2023-04-03T04:38:11.579Z,-70
2023-04-03T04:43:15.893Z,-70
2023-04-03T04:48:17.560Z,-70
2023-04-03T04:53:19.200Z,-68
2023-04-03T04:58:21.292Z,-66
2023-04-03T05:03:22.803Z,-69
2023-04-03T05:08:24.699Z,-70
2023-04-03T05:13:26.337Z,-68
2023-04-03T05:18:27.855Z,-69
2023-04-03T05:23:29.342Z,-69
2023-04-03T05:28:31.232Z,-69
2023-04-03T05:33:32.903Z,-69
2023-04-03T05:38:34.999Z,-65
2023-04-03T05:43:38.811Z,-64
2023-04-03T05:48:40.870Z,-65
2023-04-03T05:53:44.411Z,-63
2023-04-03T05:58:45.919Z,-63
2023-04-03T06:03:47.494Z,-62
2023-04-03T06:08:49.428Z,-62
2023-04-03T06:13:50.943Z,-65
2023-04-03T06:18:52.414Z,-63
2023-04-03T06:23:53.935Z,-63
2023-04-03T06:28:55.507Z,-63
2023-04-03T06:33:57.543Z,-61
2023-04-03T06:38:59.022Z,-64
2023-04-03T06:44:00.590Z,-64
2023-04-03T06:49:02.569Z,-63
2023-04-03T06:54:06.900Z,-65
2023-04-03T06:59:09.598Z,-67
2023-04-03T07:04:11.412Z,-64
2023-04-03T07:09:13.348Z,-62
2023-04-03T07:14:14.857Z,-67
2023-04-03T07:19:16.688Z,-61
2023-04-03T07:24:18.169Z,-66
2023-04-03T07:29:22.596Z,-67
2023-04-03T07:34:24.320Z,-67
2023-04-03T07:39:26.550Z,-66
2023-04-03T07:44:28.522Z,-66
2023-04-03T07:49:30.075Z,-67
2023-04-03T07:54:31.850Z,-66
2023-04-03T07:59:33.742Z,-66
2023-04-03T08:04:36.179Z,-67
2023-04-03T08:09:38.057Z,-67
2023-04-03T08:14:39.601Z,-66
2023-04-03T08:19:41.699Z,-64
2023-04-03T08:24:52.541Z,-64
2023-04-03T08:30:00.983Z,-67
2023-04-03T08:35:03.348Z,-64
2023-04-03T08:40:09.059Z,-64
2023-04-03T08:45:16.942Z,-65
2023-04-03T08:50:23.040Z,-63
2023-04-03T08:55:36.323Z,-62
2023-04-03T09:00:52.925Z,-66
2023-04-03T09:05:57.093Z,-67
2023-04-03T09:11:10.593Z,-69
2023-04-03T09:16:26.722Z,-63
2023-04-03T09:21:48.946Z,-65
2023-04-03T09:27:05.230Z,-67
2023-04-03T09:32:35.330Z,-66
2023-04-03T09:37:41.684Z,-65
2023-04-03T09:42:46.294Z,-62
2023-04-03T09:48:06.771Z,-65
2023-04-03T09:53:28.609Z,-63
2023-04-03T09:58:49.102Z,-64
2023-04-03T10:04:07.295Z,-64
2023-04-03T10:09:35.604Z,-65
2023-04-03T10:14:55.316Z,-65
2023-04-03T10:20:02.649Z,-67
2023-04-03T10:25:43.011Z,-66
2023-04-03T10:30:53.509Z,-66
2023-04-03T10:36:19.081Z,-65
2023-04-03T10:42:16.655Z,-66
2023-04-03T10:47:25.823Z,-64
2023-04-03T10:52:47.693Z,-62
2023-04-03T10:57:50.278Z,-66
2023-04-03T11:03:04.136Z,-64
2023-04-03T11:08:13.408Z,-67
2023-04-03T11:13:18.373Z,-61
2023-04-03T11:18:25.327Z,-65
2023-04-03T11:23:32.735Z,-69
2023-04-03T11:28:41.816Z,-67
2023-04-03T11:33:52.616Z,-65
2023-04-03T11:38:58.855Z,-65
2023-04-03T11:44:27.897Z,-63
2023-04-03T11:49:54.764Z,-63
2023-04-03T11:54:56.520Z,-64
2023-04-03T11:59:58.366Z,-65
2023-04-03T12:05:37.163Z,-64
2023-04-03T12:10:39.037Z,-63
2023-04-03T12:15:40.645Z,-62
2023-04-03T12:20:59.638Z,-66
2023-04-03T12:26:07.548Z,-65
2023-04-03T12:31:11.874Z,-63
2023-04-03T12:36:27.292Z,-64
2023-04-03T12:41:44.395Z,-61
2023-04-03T12:46:50.983Z,-60
2023-04-03T12:51:53.207Z,-61
2023-04-03T12:57:30.249Z,-63
2023-04-03T13:02:38.451Z,-60
2023-04-03T13:07:41.956Z,-64
2023-04-03T13:12:51.785Z,-63
2023-04-03T13:17:55.079Z,-64
2023-04-03T13:23:18.542Z,-63
2023-04-03T13:28:25.746Z,-66
2023-04-03T13:33:32.418Z,-63
2023-04-03T13:38:35.143Z,-62
2023-04-03T13:43:38.161Z,-64
2023-04-03T13:48:52.265Z,-61
2023-04-03T13:53:58.557Z,-62
2023-04-03T13:59:20.926Z,-63
2023-04-03T14:04:27.396Z,-64
2023-04-03T14:09:29.259Z,-62
2023-04-03T14:14:36.536Z,-62
2023-04-03T14:19:38.037Z,-62
2023-04-03T14:24:40.306Z,-62
2023-04-03T14:29:42.357Z,-62
2023-04-03T14:34:44.549Z,-63
2023-04-03T14:39:47.077Z,-62
2023-04-03T14:44:49.281Z,-61
2023-04-03T14:49:50.945Z,-62
2023-04-03T14:54:54.402Z,-64
2023-04-03T14:59:56.079Z,-62
2023-04-03T15:04:58.671Z,-63
2023-04-03T15:10:14.698Z,-63
2023-04-03T15:15:18.496Z,-63
2023-04-03T15:20:24.165Z,-62
2023-04-03T15:25:26.971Z,-62
2023-04-03T15:30:28.508Z,-63
2023-04-03T15:35:30.094Z,-62
2023-04-03T15:40:31.693Z,-63
2023-04-03T15:45:36.031Z,-65
2023-04-03T15:50:37.888Z,-64
2023-04-03T15:55:40.425Z,-65
2023-04-03T16:00:42.781Z,-64
2023-04-03T16:05:44.765Z,-63
2023-04-03T16:10:47.234Z,-64
2023-04-03T16:15:49.877Z,-63
2023-04-03T16:20:51.744Z,-63
2023-04-03T16:25:53.508Z,-62
2023-04-03T16:30:55.062Z,-62
2023-04-03T16:35:56.598Z,-61
2023-04-03T16:41:00.377Z,-63
2023-04-03T16:46:03.473Z,-63
2023-04-03T16:51:05.243Z,-63
2023-04-03T16:56:06.786Z,-63
2023-04-03T17:01:14.545Z,-62
2023-04-03T17:06:24.276Z,-63
2023-04-03T17:11:26.755Z,-62
2023-04-03T17:16:29.977Z,-63
2023-04-03T17:21:33.245Z,-66
2023-04-03T17:26:37.509Z,-61
2023-04-03T17:31:39.147Z,-66
2023-04-03T17:36:41.757Z,-64
2023-04-03T17:41:45.986Z,-63
2023-04-03T17:46:47.645Z,-63
2023-04-03T17:51:49.335Z,-62
2023-04-03T17:56:50.976Z,-68
2023-04-03T18:01:53.402Z,-60
2023-04-03T18:06:56.087Z,-61
2023-04-03T18:11:58.200Z,-59
2023-04-03T18:16:59.744Z,-60
2023-04-03T18:22:05.333Z,-59
2023-04-03T18:27:12.989Z,-59
2023-04-03T18:32:17.930Z,-66
2023-04-03T18:37:20.979Z,-60
2023-04-03T18:42:26.007Z,-59
2023-04-03T18:47:29.027Z,-60
2023-04-03T18:52:30.636Z,-60
2023-04-03T18:57:32.218Z,-65
2023-04-03T19:02:34.222Z,-65
2023-04-03T19:07:35.948Z,-66
2023-04-03T19:12:37.472Z,-64
2023-04-03T19:17:39.348Z,-67
2023-04-03T19:22:41.817Z,-68
2023-04-03T19:27:43.346Z,-65
2023-04-03T19:32:44.907Z,-67
2023-04-03T19:37:50.823Z,-65
2023-04-03T19:42:52.872Z,-65
2023-04-03T19:47:54.731Z,-69
2023-04-03T19:52:56.345Z,-66
2023-04-03T19:57:59.733Z,-69
2023-04-03T20:03:01.775Z,-69
2023-04-03T20:08:03.861Z,-68
2023-04-03T20:13:08.624Z,-66
2023-04-03T20:18:18.829Z,-66
2023-04-03T20:23:21.056Z,-65
2023-04-03T20:28:23.121Z,-68
2023-04-03T20:33:28.146Z,-67
2023-04-03T20:38:29.987Z,-65
2023-04-03T20:43:31.529Z,-62
2023-04-03T20:48:33.016Z,-67
2023-04-03T20:53:34.764Z,-65
2023-04-03T20:58:39.002Z,-63
2023-04-03T21:03:40.916Z,-65
2023-04-03T21:09:20.837Z,-66
2023-04-03T21:15:00.170Z,-65
2023-04-03T21:20:01.718Z,-66
2023-04-03T21:25:03.492Z,-69
2023-04-03T21:30:06.374Z,-65
2023-04-03T21:35:09.524Z,-66
2023-04-03T21:40:11.601Z,-65
2023-04-03T21:45:16.204Z,-65
2023-04-03T21:50:19.379Z,-66
2023-04-03T21:55:20.890Z,-66
2023-04-03T22:00:28.868Z,-65
2023-04-03T22:05:32.159Z,-65
2023-04-03T22:10:34.266Z,-63
2023-04-03T22:15:42.875Z,-63
2023-04-03T22:20:44.718Z,-63
2023-04-03T22:26:03.671Z,-63
2023-04-03T22:31:09.839Z,-63
2023-04-03T22:36:13.554Z,-64
2023-04-03T22:41:15.105Z,-64
2023-04-03T22:46:16.693Z,-63
2023-04-03T22:51:18.237Z,-63
2023-04-03T22:56:19.923Z,-63
2023-04-03T23:01:24.147Z,-64
2023-04-03T23:06:26.755Z,-64
2023-04-03T23:11:28.245Z,-64
2023-04-03T23:16:29.825Z,-62
2023-04-03T23:21:31.525Z,-63
2023-04-03T23:26:32.994Z,-62
2023-04-03T23:31:34.506Z,-63
2023-04-03T23:36:36.358Z,-64
2023-04-03T23:41:37.848Z,-64
2023-04-03T23:46:39.583Z,-64
2023-04-03T23:51:41.328Z,-65
2023-04-03T23:56:42.797Z,-64
